Terminal Aerodrome Forecast
Issued by NWS Atlanta, GA

Home | Current Version | Previous Version | Text Only | Print | Product List | Glossary On
Versions: 1 2 3 4 5 6 7 8 9 10 11 12 13 14 15 16 17
000
FTUS42 KFFC 011401 AAA
TAFMCN
TAF AMD
KMCN 011401Z 0114/0212 08010KT 3SM BR OVC005
      TEMPO 0114/0116 1SM -DZ BR OVC003
     FM011600 08008KT 5SM -RADZ OVC004
     FM011900 08005KT 6SM BR BKN008
     FM020200 00000KT 2SM -DZ OVC004=

USA.gov is the U.S. government's official web portal to all federal, state and local government web resources and services.